This is the latest recevied weather packets stored in our database for station/object WX7FGZ-7. If no packets are shown the sender has not sent any weather packets the latest 10 day(s).
| Time | Temp. | Humidity | Pressure | Rain* | Wind** | Luminosity | Snow |
|---|---|---|---|---|---|---|---|
| 1777406100 | 18.89° C | 21% | 1020.5 hPa | 0 mm | - | - | - |
| 1777405784 | 18.89° C | 20% | 1020.5 hPa | 0 mm | - | - | - |
| 1777405539 | 18.89° C | 19% | 1020.6 hPa | 0 mm | - | - | - |
| 1777405489 | 18.89° C | 19% | 1020.6 hPa | 0 mm | - | - | - |
| 1777405184 | 18.89° C | 20% | 1020.6 hPa | 0 mm | - | - | - |
| 1777404939 | 18.33° C | 22% | 1020.7 hPa | 0 mm | - | - | - |
| 1777404889 | 18.33° C | 22% | 1020.7 hPa | 0 mm | - | - | - |
| 1777404291 | 18.89° C | 21% | 1020.9 hPa | 0 mm | - | - | - |
| 1777403723 | 17.78° C | 23% | 1021.1 hPa | 0 mm | - | - | - |
| 1777403684 | 17.78° C | 23% | 1021.1 hPa | 0 mm | - | - | - |
| 1777403143 | 17.22° C | 24% | 1021.3 hPa | 0 mm | - | - | - |
| 1777403090 | 17.22° C | 24% | 1021.3 hPa | 0 mm | - | - | - |
| 1777402787 | 17.78° C | 22% | 1021.2 hPa | 0 mm | - | - | - |
| 1777398245 | 15.56° C | 26% | 1021.2 hPa | 0 mm | - | - | - |
| 1777393577 | 14.44° C | 27% | 1021.2 hPa | 0 mm | - | - | - |
| 1777393267 | 14.44° C | 28% | 1021.3 hPa | 0 mm | - | - | - |
| 1777392967 | 13.89° C | 28% | 1021.3 hPa | 0 mm | - | - | - |
| 1777390389 | 12.22° C | 32% | 1021.2 hPa | 0 mm | - | - | - |
| 1777388889 | 11.67° C | 31% | 1021 hPa | 0 mm | - | - | - |
| 1777387821 | 10.56° C | 33% | 1020.6 hPa | 0 mm | - | - | - |
| 1777387689 | 10.56° C | 33% | 1020.6 hPa | 0 mm | - | - | - |
| 1777386792 | 10° C | 34% | 1020.6 hPa | 0 mm | - | - | - |
| 1777386077 | 8.89° C | 34% | 1020.2 hPa | 0 mm | - | - | - |
| 1777385931 | 8.89° C | 34% | 1020.2 hPa | 0 mm | - | - | - |
| 1777385042 | 8.33° C | 36% | 1020 hPa | 0 mm | - | - | - |
* Rain latest hour (hover to see other rain measurements)
** Current wind speed in m/s (hover to see current wind gust speed)